createdAt,value
2019-02-08T00:02:00.559Z,16.40
2019-02-08T00:04:30.929Z,16.33
2019-02-08T00:07:01.263Z,16.10
2019-02-08T00:09:31.939Z,16.67
2019-02-08T00:12:02.268Z,16.07
2019-02-08T00:14:33.007Z,16.17
2019-02-08T00:17:03.903Z,16.03
2019-02-08T00:19:35.166Z,15.80
2019-02-08T00:22:07.798Z,16.30
2019-02-08T00:24:38.395Z,17.20
2019-02-08T00:27:08.783Z,14.80
2019-02-08T00:29:39.644Z,16.70
2019-02-08T00:32:09.996Z,16.23
2019-02-08T00:34:40.251Z,15.07
2019-02-08T00:37:10.919Z,14.93
2019-02-08T00:39:41.666Z,15.03
2019-02-08T00:42:11.937Z,15.67
2019-02-08T00:44:42.559Z,14.13
2019-02-08T00:47:12.826Z,15.03
2019-02-08T00:49:44.442Z,14.97
2019-02-08T00:52:15.666Z,15.37
2019-02-08T00:54:45.969Z,15.27
2019-02-08T00:57:16.270Z,15.00
2019-02-08T00:59:47.228Z,15.03
2019-02-08T01:02:17.496Z,15.13
2019-02-08T01:04:47.794Z,15.27
2019-02-08T01:07:18.733Z,15.50
2019-02-08T01:09:49.245Z,16.53
2019-02-08T01:12:19.527Z,15.53
2019-02-08T01:14:50.249Z,14.83
2019-02-08T01:17:20.844Z,17.27
2019-02-08T01:19:51.357Z,16.07
2019-02-08T01:22:22.111Z,17.67
2019-02-08T01:24:52.756Z,15.43
2019-02-08T01:27:23.038Z,16.97
2019-02-08T01:29:53.469Z,14.50
2019-02-08T01:32:24.229Z,13.57
2019-02-08T01:34:54.544Z,12.90
2019-02-08T01:37:24.851Z,13.57
2019-02-08T01:39:55.654Z,12.80
2019-02-08T01:42:25.953Z,12.93
2019-02-08T01:44:56.234Z,12.63
2019-02-08T01:47:26.997Z,13.83
2019-02-08T01:49:57.573Z,12.77
2019-02-08T01:52:28.266Z,13.37
2019-02-08T01:54:58.590Z,11.73
2019-02-08T01:57:28.870Z,12.90
2019-02-08T01:59:59.684Z,11.07
2019-02-08T02:02:30.617Z,12.87
2019-02-08T02:05:01.188Z,11.40
2019-02-08T02:07:31.751Z,11.20
2019-02-08T02:10:02.289Z,10.63
2019-02-08T02:12:32.576Z,9.87
2019-02-08T02:15:03.393Z,9.97
2019-02-08T02:17:33.767Z,10.17
2019-02-08T02:20:05.566Z,9.47
2019-02-08T02:22:35.831Z,10.57
2019-02-08T02:25:07.405Z,9.10
2019-02-08T02:27:37.758Z,9.27
2019-02-08T02:30:10.176Z,10.03
2019-02-08T02:32:40.436Z,10.23
2019-02-08T02:35:12.450Z,9.70
2019-02-08T02:37:43.369Z,10.13
2019-02-08T02:40:14.425Z,9.10
2019-02-08T02:42:45.451Z,9.63
2019-02-08T02:45:19.529Z,10.03
2019-02-08T02:47:50.014Z,10.17
2019-02-08T02:50:21.244Z,9.77
2019-02-08T02:52:51.550Z,10.60
2019-02-08T02:55:23.717Z,12.27
2019-02-08T02:57:54.094Z,11.77
2019-02-08T03:00:36.554Z,11.53
2019-02-08T03:03:07.237Z,10.87
2019-02-08T03:05:38.414Z,10.97
2019-02-08T03:08:09.784Z,11.00
2019-02-08T03:10:40.199Z,8.30
2019-02-08T03:13:11.598Z,9.87
2019-02-08T03:15:42.057Z,8.67
2019-02-08T03:18:12.419Z,9.43
2019-02-08T03:20:43.126Z,8.87
2019-02-08T03:23:13.461Z,8.27
2019-02-08T03:25:44.407Z,8.13
2019-02-08T03:28:15.662Z,8.10
2019-02-08T03:30:49.310Z,8.57
2019-02-08T03:33:20.128Z,8.90
2019-02-08T03:35:50.631Z,7.10
2019-02-08T03:38:20.919Z,8.67
2019-02-08T03:40:51.710Z,7.93
2019-02-08T03:43:22.001Z,9.07
2019-02-08T03:45:53.683Z,9.40
2019-02-08T03:48:24.298Z,9.47
2019-02-08T03:50:54.800Z,9.43
2019-02-08T03:53:25.070Z,8.03
2019-02-08T03:55:58.527Z,7.70
2019-02-08T03:58:27.722Z,7.40
2019-02-08T04:01:00.831Z,8.13
2019-02-08T04:03:31.434Z,8.10
2019-02-08T04:06:02.056Z,7.63
2019-02-08T04:08:32.738Z,7.50
2019-02-08T04:11:03.146Z,8.60
2019-02-08T04:13:33.462Z,8.27
2019-02-08T04:16:05.747Z,9.03
2019-02-08T04:18:36.394Z,8.80
2019-02-08T04:21:06.670Z,9.50
2019-02-08T04:23:37.481Z,9.50
2019-02-08T04:26:07.851Z,7.70
2019-02-08T04:28:38.164Z,8.77
2019-02-08T04:31:08.474Z,9.00
2019-02-08T04:33:39.017Z,9.40
2019-02-08T04:36:09.572Z,9.20
2019-02-08T04:38:40.350Z,9.93
2019-02-08T04:41:10.627Z,8.60
2019-02-08T04:43:41.512Z,9.07
2019-02-08T04:46:11.907Z,9.13
2019-02-08T04:48:42.194Z,8.40
2019-02-08T04:51:12.629Z,8.93
2019-02-08T04:53:43.293Z,9.77
2019-02-08T04:56:13.562Z,9.27
2019-02-08T04:58:43.869Z,9.40
2019-02-08T05:01:14.265Z,10.67
2019-02-08T05:03:45.045Z,9.47
2019-02-08T05:06:15.613Z,9.40
2019-02-08T05:08:46.147Z,9.50
2019-02-08T05:11:16.599Z,8.67
2019-02-08T05:13:47.357Z,9.00
2019-02-08T05:16:17.629Z,8.83
2019-02-08T05:18:48.135Z,8.90
2019-02-08T05:21:18.604Z,9.70
2019-02-08T05:23:48.915Z,10.23
2019-02-08T05:26:19.167Z,9.90
2019-02-08T05:28:49.724Z,9.07
2019-02-08T05:31:20.152Z,9.63
2019-02-08T05:33:51.650Z,11.03
2019-02-08T05:36:22.493Z,10.67
2019-02-08T05:38:53.317Z,10.53
2019-02-08T05:41:23.762Z,9.27
2019-02-08T05:43:54.443Z,11.13
2019-02-08T05:46:25.039Z,8.97
2019-02-08T05:48:55.362Z,10.17
2019-02-08T05:51:25.788Z,9.27
2019-02-08T05:53:56.248Z,9.87
2019-02-08T05:56:26.517Z,9.53
2019-02-08T05:58:56.856Z,9.07
2019-02-08T06:01:27.495Z,8.23
2019-02-08T06:03:57.802Z,10.87
2019-02-08T06:06:28.455Z,9.00
2019-02-08T06:08:58.764Z,9.93
2019-02-08T06:11:29.319Z,10.77
2019-02-08T06:13:59.970Z,10.17
2019-02-08T06:16:30.428Z,9.47
2019-02-08T06:19:00.929Z,10.20
2019-02-08T06:21:31.421Z,9.30
2019-02-08T06:24:01.770Z,10.83
2019-02-08T06:26:32.035Z,11.40
2019-02-08T06:29:02.448Z,11.67
2019-02-08T06:31:33.001Z,12.63
2019-02-08T06:34:03.380Z,12.70
2019-02-08T06:36:33.888Z,13.00
2019-02-08T06:39:06.115Z,13.80
2019-02-08T06:41:36.898Z,14.03
2019-02-08T06:44:07.324Z,14.37
2019-02-08T06:46:37.600Z,14.10
2019-02-08T06:49:08.768Z,15.07
2019-02-08T06:51:39.257Z,14.33
2019-02-08T06:54:09.825Z,15.27
2019-02-08T06:56:56.677Z,15.00
2019-02-08T06:59:54.783Z,13.93
2019-02-08T07:02:50.213Z,14.97
2019-02-08T07:05:43.049Z,15.63
2019-02-08T07:08:44.906Z,12.33
2019-02-08T07:11:32.645Z,15.07
2019-02-08T07:14:20.633Z,11.77
2019-02-08T07:17:15.715Z,11.70
2019-02-08T07:20:13.181Z,11.10
2019-02-08T07:23:16.029Z,11.23
2019-02-08T07:26:14.598Z,10.03
2019-02-08T07:28:56.793Z,10.47
2019-02-08T07:31:45.257Z,9.93
2019-02-08T07:34:22.204Z,9.60
2019-02-08T07:37:15.337Z,11.97
2019-02-08T07:40:10.273Z,9.47
2019-02-08T07:43:00.523Z,8.30
2019-02-08T07:46:04.313Z,8.07
2019-02-08T07:48:47.745Z,7.67
2019-02-08T07:51:36.239Z,8.67
2019-02-08T07:54:34.522Z,8.50
2019-02-08T07:57:23.849Z,9.00
2019-02-08T08:00:07.293Z,8.63
2019-02-08T08:02:55.901Z,8.83
2019-02-08T08:05:43.621Z,8.43
2019-02-08T08:08:38.732Z,9.93
2019-02-08T08:11:26.992Z,10.27
2019-02-08T08:14:11.274Z,11.30
2019-02-08T08:17:00.498Z,10.83
2019-02-08T08:19:53.366Z,10.73
2019-02-08T08:22:31.841Z,8.60
2019-02-08T08:25:22.976Z,8.87
2019-02-08T08:28:16.697Z,9.83
2019-02-08T08:30:57.128Z,9.83
2019-02-08T08:34:01.116Z,9.60
2019-02-08T08:37:20.593Z,10.33
2019-02-08T08:40:19.062Z,9.53
2019-02-08T08:43:15.152Z,12.40
2019-02-08T08:46:01.717Z,14.13
2019-02-08T08:49:14.374Z,14.13
2019-02-08T08:52:25.890Z,14.97
2019-02-08T08:55:42.284Z,14.03
2019-02-08T08:58:42.083Z,16.80
2019-02-08T09:01:38.312Z,16.43
2019-02-08T09:04:36.262Z,16.47
2019-02-08T09:07:43.118Z,18.23
2019-02-08T09:10:47.506Z,18.23
2019-02-08T09:13:46.444Z,22.00
2019-02-08T09:17:12.214Z,21.90
2019-02-08T09:20:19.527Z,18.27
2019-02-08T09:23:36.632Z,17.17
2019-02-08T09:26:45.127Z,17.37
2019-02-08T09:29:40.608Z,18.43
2019-02-08T09:32:56.942Z,16.73
2019-02-08T09:36:11.154Z,17.40
2019-02-08T09:39:24.610Z,21.03
2019-02-08T09:42:30.955Z,22.40
2019-02-08T09:45:43.577Z,21.27
2019-02-08T09:48:35.654Z,22.67
2019-02-08T09:51:47.155Z,29.67
2019-02-08T09:55:13.378Z,20.93
2019-02-08T09:58:21.780Z,21.60
2019-02-08T10:01:32.699Z,24.17
2019-02-08T10:04:44.165Z,25.93
2019-02-08T10:07:47.669Z,24.20
2019-02-08T10:10:56.846Z,27.80
2019-02-08T10:14:23.455Z,23.17
2019-02-08T10:17:43.734Z,23.97
2019-02-08T10:20:37.760Z,22.27
2019-02-08T10:23:40.059Z,21.60
2019-02-08T10:27:06.838Z,22.70
2019-02-08T10:30:42.081Z,23.87
2019-02-08T10:33:49.144Z,24.13
2019-02-08T10:36:50.657Z,19.87
2019-02-08T10:39:58.052Z,21.13
2019-02-08T10:43:03.393Z,21.37
2019-02-08T10:46:33.180Z,20.57
2019-02-08T10:50:14.877Z,19.40
2019-02-08T10:53:38.178Z,22.90
2019-02-08T10:56:46.538Z,19.43
2019-02-08T11:00:13.540Z,17.10
2019-02-08T11:03:30.838Z,18.57
2019-02-08T11:07:06.711Z,18.67
2019-02-08T11:10:27.418Z,19.57
2019-02-08T11:13:34.791Z,20.00
2019-02-08T11:16:51.920Z,17.67
2019-02-08T11:19:23.788Z,18.80
2019-02-08T11:21:54.600Z,16.83
2019-02-08T11:24:26.269Z,15.30
2019-02-08T11:26:58.700Z,16.83
2019-02-08T11:29:29.483Z,16.53
2019-02-08T11:31:59.754Z,17.73
2019-02-08T11:34:30.577Z,17.03
2019-02-08T11:37:01.426Z,18.33
2019-02-08T11:39:31.752Z,18.87
2019-02-08T11:42:02.774Z,20.00
2019-02-08T11:44:33.092Z,18.20
2019-02-08T11:47:03.651Z,17.97
2019-02-08T11:49:34.410Z,17.13
2019-02-08T11:52:04.777Z,18.37
2019-02-08T11:54:35.108Z,17.17
2019-02-08T11:57:06.798Z,18.67
2019-02-08T11:59:37.117Z,20.13
2019-02-08T12:02:07.631Z,16.43
2019-02-08T12:04:38.453Z,19.20
2019-02-08T12:07:11.874Z,19.57
2019-02-08T12:09:42.226Z,20.17
2019-02-08T12:12:12.837Z,17.37
2019-02-08T12:14:43.146Z,19.00
2019-02-08T12:17:13.927Z,19.43
2019-02-08T12:19:44.213Z,17.87
2019-02-08T12:22:14.734Z,17.80
2019-02-08T12:24:45.487Z,16.97
2019-02-08T12:27:16.259Z,18.40
2019-02-08T12:29:46.524Z,17.60
2019-02-08T12:32:17.082Z,16.27
2019-02-08T12:34:47.738Z,14.97
2019-02-08T12:37:18.008Z,16.23
2019-02-08T12:39:48.671Z,15.70
2019-02-08T12:42:19.437Z,13.27
2019-02-08T12:44:49.718Z,15.00
2019-02-08T12:47:20.166Z,14.10
2019-02-08T12:49:50.853Z,15.00
2019-02-08T12:52:21.130Z,14.57
2019-02-08T12:54:51.399Z,11.83
2019-02-08T12:57:21.803Z,12.60
2019-02-08T12:59:52.100Z,14.03
2019-02-08T13:02:22.359Z,14.20
2019-02-08T13:04:53.432Z,13.27
2019-02-08T13:07:23.930Z,15.60
2019-02-08T13:09:55.362Z,12.73
2019-02-08T13:12:26.075Z,13.20
2019-02-08T13:14:56.840Z,15.03
2019-02-08T13:17:27.503Z,15.20
2019-02-08T13:19:57.932Z,15.73
2019-02-08T13:22:28.607Z,12.87
2019-02-08T13:24:59.330Z,14.57
2019-02-08T13:27:29.657Z,14.80
2019-02-08T13:29:59.942Z,14.23
2019-02-08T13:32:30.621Z,14.73
2019-02-08T13:35:02.503Z,12.63
2019-02-08T13:37:32.784Z,13.63
2019-02-08T13:40:03.573Z,14.43
2019-02-08T13:42:34.152Z,13.87
2019-02-08T13:45:05.237Z,13.93
2019-02-08T13:47:35.802Z,15.50
2019-02-08T13:50:09.334Z,13.90
2019-02-08T13:52:39.831Z,14.70
2019-02-08T13:55:11.555Z,14.03
2019-02-08T13:57:41.821Z,14.50
2019-02-08T14:00:18.569Z,14.50
2019-02-08T14:02:49.215Z,14.80
2019-02-08T14:05:19.879Z,15.57
2019-02-08T14:07:50.276Z,12.17
2019-02-08T14:10:21.146Z,11.80
2019-02-08T14:12:51.438Z,15.70
2019-02-08T14:15:22.523Z,12.30
2019-02-08T14:17:53.111Z,13.27
2019-02-08T14:20:24.611Z,13.07
2019-02-08T14:22:56.540Z,11.83
2019-02-08T14:25:27.030Z,12.33
2019-02-08T14:27:57.444Z,8.50
2019-02-08T14:30:32.458Z,8.60
2019-02-08T14:33:02.836Z,9.77
2019-02-08T14:35:33.508Z,10.57
2019-02-08T14:38:05.646Z,9.83
2019-02-08T14:40:36.557Z,12.93
2019-02-08T14:43:06.834Z,11.67
2019-02-08T14:45:37.503Z,14.73
2019-02-08T14:48:08.117Z,13.13
2019-02-08T14:50:38.665Z,12.47
2019-02-08T14:53:09.545Z,11.80
2019-02-08T14:55:40.371Z,11.30
2019-02-08T14:58:10.970Z,10.93
2019-02-08T15:00:41.532Z,11.53
2019-02-08T15:03:11.910Z,13.23
2019-02-08T15:05:43.156Z,14.73
2019-02-08T15:08:13.685Z,11.63
2019-02-08T15:10:46.649Z,11.53
2019-02-08T15:13:17.042Z,11.03
2019-02-08T15:15:47.574Z,11.67
2019-02-08T15:18:18.737Z,12.50
2019-02-08T15:20:49.129Z,13.47
2019-02-08T15:23:19.469Z,11.80
2019-02-08T15:25:50.305Z,15.47
2019-02-08T15:28:20.646Z,15.10
2019-02-08T15:30:51.218Z,15.43
2019-02-08T15:33:21.494Z,17.03
2019-02-08T15:35:51.882Z,15.37
2019-02-08T15:38:22.545Z,14.37
2019-02-08T15:40:55.364Z,16.97
2019-02-08T15:43:26.360Z,15.63
2019-02-08T15:45:59.544Z,15.20
2019-02-08T15:48:30.166Z,15.80
2019-02-08T15:51:01.542Z,18.10
2019-02-08T15:53:32.197Z,17.47
2019-02-08T15:56:09.506Z,16.70
2019-02-08T15:58:40.011Z,15.63
2019-02-08T16:01:11.896Z,14.30
2019-02-08T16:03:43.191Z,13.07
2019-02-08T16:06:13.588Z,14.47
2019-02-08T16:08:44.114Z,12.90
2019-02-08T16:11:14.459Z,13.80
2019-02-08T16:13:45.186Z,13.27
2019-02-08T16:16:16.116Z,13.60
2019-02-08T16:18:46.570Z,12.10
2019-02-08T16:21:17.443Z,11.87
2019-02-08T16:23:48.073Z,11.90
2019-02-08T16:26:18.500Z,12.80
2019-02-08T16:28:48.938Z,12.80
2019-02-08T16:31:19.333Z,12.30
2019-02-08T16:33:50.103Z,12.20
2019-02-08T16:36:20.499Z,9.03
2019-02-08T16:38:50.841Z,10.90
2019-02-08T16:41:21.518Z,11.33
2019-02-08T16:43:52.321Z,9.83
2019-02-08T16:46:22.637Z,8.13
2019-02-08T16:48:53.085Z,10.83
2019-02-08T16:51:23.961Z,10.70
2019-02-08T16:53:54.270Z,10.23
2019-02-08T16:56:24.735Z,10.60
2019-02-08T16:58:55.488Z,11.53
2019-02-08T17:01:25.792Z,10.30
2019-02-08T17:03:56.170Z,11.83
2019-02-08T17:06:26.528Z,11.87
2019-02-08T17:08:56.908Z,11.10
2019-02-08T17:11:27.475Z,11.30
2019-02-08T17:13:57.801Z,11.97
2019-02-08T17:16:28.216Z,10.97
2019-02-08T17:18:58.817Z,12.03
2019-02-08T17:21:29.528Z,12.53
2019-02-08T17:23:59.811Z,12.13
2019-02-08T17:26:30.461Z,12.77
2019-02-08T17:29:00.991Z,11.37
2019-02-08T17:31:31.316Z,15.47
2019-02-08T17:34:02.745Z,14.97
2019-02-08T17:36:33.082Z,14.57
2019-02-08T17:39:05.345Z,13.47
2019-02-08T17:41:35.633Z,13.60
2019-02-08T17:44:06.153Z,14.90
2019-02-08T17:46:36.828Z,16.60
2019-02-08T17:49:07.308Z,15.77
2019-02-08T17:51:37.619Z,15.37
2019-02-08T17:54:08.561Z,13.60
2019-02-08T17:56:39.222Z,14.27
2019-02-08T17:59:11.364Z,11.77
2019-02-08T18:01:42.053Z,12.27
2019-02-08T18:04:12.421Z,12.43
2019-02-08T18:06:42.805Z,11.33
2019-02-08T18:09:13.266Z,12.30
2019-02-08T18:11:43.599Z,12.40
2019-02-08T18:14:15.063Z,28.57
2019-02-08T18:16:45.798Z,19.70
2019-02-08T18:19:16.120Z,14.43
2019-02-08T18:21:46.727Z,12.10
2019-02-08T18:24:17.407Z,12.00
2019-02-08T18:26:47.900Z,12.53
2019-02-08T18:29:18.238Z,11.57
2019-02-08T18:31:48.949Z,10.47
2019-02-08T18:34:19.273Z,12.60
2019-02-08T18:36:49.610Z,12.57
2019-02-08T18:39:20.169Z,11.13
2019-02-08T18:41:50.854Z,14.37
2019-02-08T18:44:21.454Z,13.67
2019-02-08T18:46:52.150Z,13.63
2019-02-08T18:49:22.721Z,12.03
2019-02-08T18:51:53.521Z,19.60
2019-02-08T18:54:23.818Z,14.53
2019-02-08T18:56:54.168Z,13.60
2019-02-08T18:59:24.961Z,13.33
2019-02-08T19:01:55.220Z,14.17
2019-02-08T19:04:25.773Z,13.83
2019-02-08T19:06:56.519Z,16.30
2019-02-08T19:09:26.979Z,18.23
2019-02-08T19:11:57.294Z,13.97
2019-02-08T19:14:27.840Z,12.87
2019-02-08T19:16:58.418Z,12.83
2019-02-08T19:19:28.763Z,11.73
2019-02-08T19:21:59.524Z,12.13
2019-02-08T19:24:30.326Z,12.93
2019-02-08T19:27:00.607Z,11.17
2019-02-08T19:29:31.141Z,12.40
2019-02-08T19:32:01.523Z,11.47
2019-02-08T19:34:32.118Z,10.33
2019-02-08T19:37:03.067Z,11.37
2019-02-08T19:39:33.747Z,11.83
2019-02-08T19:42:04.123Z,12.07
2019-02-08T19:44:34.928Z,11.70
2019-02-08T19:47:05.285Z,11.50
2019-02-08T19:49:35.823Z,11.60
2019-02-08T19:52:06.878Z,12.03
2019-02-08T19:54:37.207Z,12.47
2019-02-08T19:57:07.475Z,12.07
2019-02-08T19:59:38.026Z,14.33
2019-02-08T20:02:08.291Z,13.90
2019-02-08T20:04:38.712Z,14.13
2019-02-08T20:07:09.538Z,13.00
2019-02-08T20:09:40.219Z,14.90
2019-02-08T20:12:10.490Z,11.83
2019-02-08T20:14:41.185Z,12.53
2019-02-08T20:17:11.781Z,13.47
2019-02-08T20:19:42.400Z,14.23
2019-02-08T20:22:12.899Z,14.10
2019-02-08T20:24:43.168Z,14.33
2019-02-08T20:27:13.874Z,19.77
2019-02-08T20:29:44.183Z,23.43
2019-02-08T20:32:14.473Z,20.13
2019-02-08T20:34:45.443Z,23.90
2019-02-08T20:37:16.308Z,30.20
2019-02-08T20:39:47.052Z,30.07
2019-02-08T20:42:17.853Z,30.93
2019-02-08T20:44:48.831Z,34.03
2019-02-08T20:47:19.219Z,28.07
2019-02-08T20:49:49.755Z,27.93
2019-02-08T20:52:20.036Z,30.13
2019-02-08T20:54:50.770Z,26.40
2019-02-08T20:57:21.332Z,24.37
2019-02-08T20:59:51.654Z,28.43
2019-02-08T21:02:22.934Z,25.23
2019-02-08T21:04:53.896Z,18.83
2019-02-08T21:07:24.175Z,18.50
2019-02-08T21:09:55.032Z,20.73
2019-02-08T21:12:26.600Z,19.30
2019-02-08T21:14:57.099Z,21.70
2019-02-08T21:17:27.407Z,22.87
2019-02-08T21:19:58.131Z,23.70
2019-02-08T21:22:28.918Z,23.63
2019-02-08T21:24:59.310Z,24.50
2019-02-08T21:27:29.577Z,19.70
2019-02-08T21:29:59.958Z,21.03
2019-02-08T21:32:30.730Z,20.70
2019-02-08T21:35:01.351Z,21.33
2019-02-08T21:37:31.650Z,22.33
2019-02-08T21:40:02.618Z,21.53
2019-02-08T21:42:32.929Z,22.73
2019-02-08T21:45:03.234Z,22.67
2019-02-08T21:47:34.010Z,21.60
2019-02-08T21:50:05.882Z,25.13
2019-02-08T21:52:36.719Z,23.77
2019-02-08T21:55:08.509Z,23.77
2019-02-08T21:57:38.814Z,22.37
2019-02-08T22:00:23.869Z,21.73
2019-02-08T22:02:54.568Z,22.37
2019-02-08T22:05:27.903Z,20.43
2019-02-08T22:07:58.639Z,21.20
2019-02-08T22:10:29.384Z,19.63
2019-02-08T22:12:59.678Z,22.90
2019-02-08T22:15:34.902Z,18.00
2019-02-08T22:18:06.577Z,18.13
2019-02-08T22:20:37.126Z,15.57
2019-02-08T22:23:07.764Z,16.70
2019-02-08T22:25:38.090Z,16.27
2019-02-08T22:28:08.721Z,18.20
2019-02-08T22:30:39.782Z,19.00
2019-02-08T22:33:10.194Z,11.57
2019-02-08T22:35:41.375Z,15.67
2019-02-08T22:38:12.247Z,11.63
2019-02-08T22:40:42.590Z,12.90
2019-02-08T22:43:13.396Z,11.20
2019-02-08T22:45:44.309Z,10.87
2019-02-08T22:48:14.596Z,10.93
2019-02-08T22:50:45.056Z,10.83
2019-02-08T22:53:15.405Z,10.40
2019-02-08T22:55:45.880Z,11.63
2019-02-08T22:58:16.232Z,9.30
2019-02-08T23:01:30.937Z,10.33
2019-02-08T23:04:03.958Z,12.47
2019-02-08T23:06:34.820Z,11.47
2019-02-08T23:09:25.587Z,12.23
2019-02-08T23:11:56.180Z,15.03
2019-02-08T23:14:26.877Z,9.57
2019-02-08T23:16:57.145Z,9.57
2019-02-08T23:19:27.687Z,10.27
2019-02-08T23:21:58.449Z,9.37
2019-02-08T23:24:28.708Z,9.43
2019-02-08T23:26:59.003Z,8.77
2019-02-08T23:29:30.574Z,9.10
2019-02-08T23:32:01.250Z,8.17
2019-02-08T23:34:31.641Z,8.20
2019-02-08T23:37:02.466Z,7.80
2019-02-08T23:39:33.180Z,7.37
2019-02-08T23:42:03.492Z,10.23
2019-02-08T23:44:34.139Z,9.13
2019-02-08T23:47:04.909Z,7.97
2019-02-08T23:49:35.569Z,11.63
2019-02-08T23:52:06.089Z,11.80
2019-02-08T23:54:36.699Z,9.33
2019-02-08T23:57:08.067Z,9.97
2019-02-08T23:59:38.534Z,8.37
